sensor_id;sensor_type;location;lat;lon;timestamp;P1;durP1;ratioP1;P2;durP2;ratioP2
64868;SDS011;51349;52.424;10.840;2023-03-01T00:03:42;9.73;;;7.20;;
64868;SDS011;51349;52.424;10.840;2023-03-01T00:08:46;9.80;;;6.10;;
64868;SDS011;51349;52.424;10.840;2023-03-01T00:13:48;9.03;;;6.90;;
64868;SDS011;51349;52.424;10.840;2023-03-01T00:18:50;11.33;;;6.80;;
64868;SDS011;51349;52.424;10.840;2023-03-01T00:23:51;10.73;;;6.80;;
64868;SDS011;51349;52.424;10.840;2023-03-01T00:28:52;9.60;;;6.73;;
64868;SDS011;51349;52.424;10.840;2023-03-01T00:33:54;7.27;;;5.33;;
64868;SDS011;51349;52.424;10.840;2023-03-01T00:38:57;8.23;;;5.50;;
64868;SDS011;51349;52.424;10.840;2023-03-01T00:43:57;9.07;;;6.00;;
64868;SDS011;51349;52.424;10.840;2023-03-01T00:48:58;11.87;;;7.03;;
64868;SDS011;51349;52.424;10.840;2023-03-01T00:54:04;8.90;;;5.77;;
64868;SDS011;51349;52.424;10.840;2023-03-01T00:59:05;6.17;;;5.57;;
64868;SDS011;51349;52.424;10.840;2023-03-01T01:04:06;7.20;;;5.73;;
64868;SDS011;51349;52.424;10.840;2023-03-01T01:09:10;11.73;;;5.83;;
64868;SDS011;51349;52.424;10.840;2023-03-01T01:14:17;7.70;;;5.50;;
64868;SDS011;51349;52.424;10.840;2023-03-01T01:19:21;6.73;;;5.43;;
64868;SDS011;51349;52.424;10.840;2023-03-01T01:24:23;8.80;;;5.27;;
64868;SDS011;51349;52.424;10.840;2023-03-01T01:29:23;9.37;;;5.73;;
64868;SDS011;51349;52.424;10.840;2023-03-01T01:34:24;6.50;;;5.80;;
64868;SDS011;51349;52.424;10.840;2023-03-01T01:39:25;6.63;;;5.60;;
64868;SDS011;51349;52.424;10.840;2023-03-01T01:44:26;9.87;;;5.80;;
64868;SDS011;51349;52.424;10.840;2023-03-01T01:54:51;9.20;;;5.67;;
64868;SDS011;51349;52.424;10.840;2023-03-01T01:59:57;5.67;;;5.07;;
64868;SDS011;51349;52.424;10.840;2023-03-01T02:05:21;7.43;;;4.80;;
64868;SDS011;51349;52.424;10.840;2023-03-01T02:10:23;8.60;;;5.23;;
64868;SDS011;51349;52.424;10.840;2023-03-01T02:15:25;9.50;;;5.43;;
64868;SDS011;51349;52.424;10.840;2023-03-01T02:20:28;7.07;;;5.23;;
64868;SDS011;51349;52.424;10.840;2023-03-01T02:25:47;8.37;;;5.50;;
64868;SDS011;51349;52.424;10.840;2023-03-01T02:30:52;7.10;;;5.27;;
64868;SDS011;51349;52.424;10.840;2023-03-01T02:36:13;8.07;;;5.10;;
64868;SDS011;51349;52.424;10.840;2023-03-01T02:41:22;9.47;;;5.70;;
64868;SDS011;51349;52.424;10.840;2023-03-01T02:46:24;8.90;;;6.23;;
64868;SDS011;51349;52.424;10.840;2023-03-01T02:56:48;10.53;;;6.03;;
64868;SDS011;51349;52.424;10.840;2023-03-01T03:01:49;7.07;;;5.30;;
64868;SDS011;51349;52.424;10.840;2023-03-01T03:06:52;7.80;;;5.03;;
64868;SDS011;51349;52.424;10.840;2023-03-01T03:11:53;9.73;;;5.93;;
64868;SDS011;51349;52.424;10.840;2023-03-01T03:16:56;8.17;;;5.53;;
64868;SDS011;51349;52.424;10.840;2023-03-01T03:21:57;9.13;;;5.73;;
64868;SDS011;51349;52.424;10.840;2023-03-01T03:26:59;7.23;;;4.83;;
64868;SDS011;51349;52.424;10.840;2023-03-01T03:31:59;8.47;;;5.50;;
64868;SDS011;51349;52.424;10.840;2023-03-01T03:37:00;6.33;;;5.00;;
64868;SDS011;51349;52.424;10.840;2023-03-01T03:42:04;7.77;;;5.40;;
64868;SDS011;51349;52.424;10.840;2023-03-01T03:47:04;9.97;;;5.33;;
64868;SDS011;51349;52.424;10.840;2023-03-01T03:52:05;10.80;;;6.23;;
64868;SDS011;51349;52.424;10.840;2023-03-01T03:57:16;6.07;;;4.73;;
64868;SDS011;51349;52.424;10.840;2023-03-01T04:02:16;8.67;;;5.30;;
64868;SDS011;51349;52.424;10.840;2023-03-01T04:07:22;8.00;;;5.07;;
64868;SDS011;51349;52.424;10.840;2023-03-01T04:12:22;6.83;;;4.60;;
64868;SDS011;51349;52.424;10.840;2023-03-01T04:17:23;7.73;;;5.20;;
64868;SDS011;51349;52.424;10.840;2023-03-01T04:22:23;9.40;;;5.17;;
64868;SDS011;51349;52.424;10.840;2023-03-01T04:27:29;7.60;;;4.87;;
64868;SDS011;51349;52.424;10.840;2023-03-01T04:32:30;6.07;;;4.80;;
64868;SDS011;51349;52.424;10.840;2023-03-01T04:37:31;8.40;;;4.67;;
64868;SDS011;51349;52.424;10.840;2023-03-01T04:42:35;8.10;;;4.93;;
64868;SDS011;51349;52.424;10.840;2023-03-01T04:47:36;5.13;;;4.60;;
64868;SDS011;51349;52.424;10.840;2023-03-01T04:52:38;7.40;;;4.80;;
64868;SDS011;51349;52.424;10.840;2023-03-01T04:57:41;8.70;;;4.70;;
64868;SDS011;51349;52.424;10.840;2023-03-01T05:02:42;6.90;;;4.57;;
64868;SDS011;51349;52.424;10.840;2023-03-01T05:07:43;6.70;;;5.40;;
64868;SDS011;51349;52.424;10.840;2023-03-01T05:12:43;6.27;;;4.63;;
64868;SDS011;51349;52.424;10.840;2023-03-01T05:17:44;7.00;;;4.73;;
64868;SDS011;51349;52.424;10.840;2023-03-01T05:22:46;6.67;;;4.70;;
64868;SDS011;51349;52.424;10.840;2023-03-01T05:27:46;7.37;;;5.13;;
64868;SDS011;51349;52.424;10.840;2023-03-01T05:32:48;6.20;;;4.73;;
64868;SDS011;51349;52.424;10.840;2023-03-01T05:37:55;5.47;;;4.37;;
64868;SDS011;51349;52.424;10.840;2023-03-01T05:42:56;10.13;;;5.73;;
64868;SDS011;51349;52.424;10.840;2023-03-01T05:47:57;6.30;;;5.50;;
64868;SDS011;51349;52.424;10.840;2023-03-01T05:53:02;7.83;;;5.20;;
64868;SDS011;51349;52.424;10.840;2023-03-01T05:58:12;7.37;;;4.90;;
64868;SDS011;51349;52.424;10.840;2023-03-01T06:03:16;14.97;;;7.13;;
64868;SDS011;51349;52.424;10.840;2023-03-01T06:08:17;8.63;;;5.50;;
64868;SDS011;51349;52.424;10.840;2023-03-01T06:13:20;7.77;;;4.60;;
64868;SDS011;51349;52.424;10.840;2023-03-01T06:18:21;6.47;;;4.57;;
64868;SDS011;51349;52.424;10.840;2023-03-01T06:23:22;5.60;;;4.27;;
64868;SDS011;51349;52.424;10.840;2023-03-01T06:28:24;6.33;;;4.10;;
64868;SDS011;51349;52.424;10.840;2023-03-01T06:33:24;7.50;;;4.47;;
64868;SDS011;51349;52.424;10.840;2023-03-01T06:38:25;5.50;;;4.67;;
64868;SDS011;51349;52.424;10.840;2023-03-01T06:43:26;7.27;;;4.93;;
64868;SDS011;51349;52.424;10.840;2023-03-01T06:48:26;8.03;;;4.73;;
64868;SDS011;51349;52.424;10.840;2023-03-01T06:53:28;9.70;;;5.70;;
64868;SDS011;51349;52.424;10.840;2023-03-01T06:58:29;10.57;;;6.50;;
64868;SDS011;51349;52.424;10.840;2023-03-01T07:03:29;8.60;;;5.63;;
64868;SDS011;51349;52.424;10.840;2023-03-01T07:08:30;12.57;;;6.43;;
64868;SDS011;51349;52.424;10.840;2023-03-01T07:13:31;8.23;;;6.43;;
64868;SDS011;51349;52.424;10.840;2023-03-01T07:18:32;9.30;;;5.43;;
64868;SDS011;51349;52.424;10.840;2023-03-01T07:23:33;5.93;;;4.93;;
64868;SDS011;51349;52.424;10.840;2023-03-01T07:28:34;9.93;;;6.53;;
64868;SDS011;51349;52.424;10.840;2023-03-01T07:33:36;8.87;;;7.10;;
64868;SDS011;51349;52.424;10.840;2023-03-01T07:38:36;12.77;;;8.80;;
64868;SDS011;51349;52.424;10.840;2023-03-01T07:43:37;12.23;;;7.90;;
64868;SDS011;51349;52.424;10.840;2023-03-01T07:48:37;15.47;;;8.33;;
64868;SDS011;51349;52.424;10.840;2023-03-01T07:53:38;12.77;;;8.00;;
64868;SDS011;51349;52.424;10.840;2023-03-01T07:58:42;13.30;;;8.37;;
64868;SDS011;51349;52.424;10.840;2023-03-01T08:03:44;12.73;;;7.90;;
64868;SDS011;51349;52.424;10.840;2023-03-01T08:08:45;12.97;;;8.00;;
64868;SDS011;51349;52.424;10.840;2023-03-01T08:13:47;16.90;;;9.03;;
64868;SDS011;51349;52.424;10.840;2023-03-01T08:18:48;11.60;;;8.67;;
64868;SDS011;51349;52.424;10.840;2023-03-01T08:23:49;14.40;;;9.50;;
64868;SDS011;51349;52.424;10.840;2023-03-01T08:28:49;16.07;;;9.77;;
64868;SDS011;51349;52.424;10.840;2023-03-01T08:33:51;21.70;;;10.53;;
64868;SDS011;51349;52.424;10.840;2023-03-01T08:38:56;26.73;;;11.37;;
64868;SDS011;51349;52.424;10.840;2023-03-01T08:43:57;19.40;;;11.77;;
64868;SDS011;51349;52.424;10.840;2023-03-01T08:48:58;24.80;;;14.00;;
64868;SDS011;51349;52.424;10.840;2023-03-01T08:54:00;24.27;;;13.13;;
64868;SDS011;51349;52.424;10.840;2023-03-01T08:59:00;18.13;;;10.27;;
64868;SDS011;51349;52.424;10.840;2023-03-01T09:04:01;16.90;;;9.90;;
64868;SDS011;51349;52.424;10.840;2023-03-01T09:09:03;13.17;;;8.83;;
64868;SDS011;51349;52.424;10.840;2023-03-01T09:14:05;12.00;;;8.10;;
64868;SDS011;51349;52.424;10.840;2023-03-01T09:19:06;7.90;;;6.37;;
64868;SDS011;51349;52.424;10.840;2023-03-01T09:24:12;8.00;;;6.80;;
64868;SDS011;51349;52.424;10.840;2023-03-01T09:29:14;5.67;;;5.10;;
64868;SDS011;51349;52.424;10.840;2023-03-01T09:34:16;7.13;;;5.30;;
64868;SDS011;51349;52.424;10.840;2023-03-01T09:39:22;6.90;;;5.27;;
64868;SDS011;51349;52.424;10.840;2023-03-01T09:44:26;5.83;;;4.03;;
64868;SDS011;51349;52.424;10.840;2023-03-01T09:49:43;5.03;;;4.20;;
64868;SDS011;51349;52.424;10.840;2023-03-01T09:54:54;4.67;;;3.77;;
64868;SDS011;51349;52.424;10.840;2023-03-01T10:00:05;4.73;;;4.30;;
64868;SDS011;51349;52.424;10.840;2023-03-01T10:05:49;4.40;;;4.00;;
64868;SDS011;51349;52.424;10.840;2023-03-01T10:11:02;4.53;;;4.13;;
64868;SDS011;51349;52.424;10.840;2023-03-01T10:16:14;4.37;;;4.03;;
64868;SDS011;51349;52.424;10.840;2023-03-01T10:21:17;4.73;;;4.30;;
64868;SDS011;51349;52.424;10.840;2023-03-01T10:26:29;5.37;;;4.87;;
64868;SDS011;51349;52.424;10.840;2023-03-01T10:31:55;5.07;;;4.57;;
64868;SDS011;51349;52.424;10.840;2023-03-01T10:42:20;3.78;;;3.47;;
64868;SDS011;51349;52.424;10.840;2023-03-01T10:47:27;3.47;;;2.92;;
64868;SDS011;51349;52.424;10.840;2023-03-01T10:52:34;3.85;;;3.38;;
64868;SDS011;51349;52.424;10.840;2023-03-01T10:57:37;3.65;;;3.25;;
64868;SDS011;51349;52.424;10.840;2023-03-01T11:02:40;4.28;;;3.88;;
64868;SDS011;51349;52.424;10.840;2023-03-01T11:07:48;3.65;;;3.35;;
64868;SDS011;51349;52.424;10.840;2023-03-01T11:12:53;3.85;;;3.55;;
64868;SDS011;51349;52.424;10.840;2023-03-01T11:18:05;4.28;;;3.65;;
64868;SDS011;51349;52.424;10.840;2023-03-01T11:23:20;3.70;;;3.40;;
64868;SDS011;51349;52.424;10.840;2023-03-01T11:28:22;3.30;;;3.00;;
64868;SDS011;51349;52.424;10.840;2023-03-01T11:38:36;3.47;;;3.17;;
64868;SDS011;51349;52.424;10.840;2023-03-01T11:48:52;4.07;;;3.78;;
64868;SDS011;51349;52.424;10.840;2023-03-01T11:54:24;4.25;;;3.85;;
64868;SDS011;51349;52.424;10.840;2023-03-01T12:10:43;3.13;;;2.92;;
64868;SDS011;51349;52.424;10.840;2023-03-01T12:16:00;4.10;;;3.80;;
64868;SDS011;51349;52.424;10.840;2023-03-01T12:26:59;4.05;;;3.42;;
64868;SDS011;51349;52.424;10.840;2023-03-01T12:53:32;4.20;;;3.47;;
64868;SDS011;51349;52.424;10.840;2023-03-01T12:58:44;3.63;;;3.30;;
64868;SDS011;51349;52.424;10.840;2023-03-01T13:09:09;3.13;;;2.92;;
64868;SDS011;51349;52.424;10.840;2023-03-01T13:19:25;3.58;;;3.28;;
64868;SDS011;51349;52.424;10.840;2023-03-01T13:24:42;3.30;;;3.03;;
64868;SDS011;51349;52.424;10.840;2023-03-01T13:34:48;5.43;;;3.13;;
64868;SDS011;51349;52.424;10.840;2023-03-01T13:39:54;3.60;;;3.30;;
64868;SDS011;51349;52.424;10.840;2023-03-01T13:44:57;5.15;;;3.42;;
64868;SDS011;51349;52.424;10.840;2023-03-01T13:50:02;3.60;;;3.30;;
64868;SDS011;51349;52.424;10.840;2023-03-01T13:55:16;3.45;;;3.15;;
64868;SDS011;51349;52.424;10.840;2023-03-01T14:00:28;3.33;;;3.03;;
64868;SDS011;51349;52.424;10.840;2023-03-01T14:05:31;3.15;;;2.92;;
64868;SDS011;51349;52.424;10.840;2023-03-01T14:10:40;3.60;;;2.70;;
64868;SDS011;51349;52.424;10.840;2023-03-01T14:20:59;2.65;;;2.45;;
64868;SDS011;51349;52.424;10.840;2023-03-01T14:26:01;3.33;;;2.63;;
64868;SDS011;51349;52.424;10.840;2023-03-01T14:31:01;2.72;;;2.53;;
64868;SDS011;51349;52.424;10.840;2023-03-01T14:36:10;2.83;;;2.63;;
64868;SDS011;51349;52.424;10.840;2023-03-01T14:41:19;2.83;;;2.63;;
64868;SDS011;51349;52.424;10.840;2023-03-01T14:46:33;3.17;;;2.97;;
64868;SDS011;51349;52.424;10.840;2023-03-01T14:51:37;3.15;;;2.90;;
64868;SDS011;51349;52.424;10.840;2023-03-01T14:56:43;3.17;;;2.80;;
64868;SDS011;51349;52.424;10.840;2023-03-01T15:01:45;3.47;;;2.78;;
64868;SDS011;51349;52.424;10.840;2023-03-01T15:06:47;2.92;;;2.67;;
64868;SDS011;51349;52.424;10.840;2023-03-01T15:11:51;3.13;;;2.92;;
64868;SDS011;51349;52.424;10.840;2023-03-01T15:16:52;2.97;;;2.70;;
64868;SDS011;51349;52.424;10.840;2023-03-01T15:21:52;3.17;;;2.88;;
64868;SDS011;51349;52.424;10.840;2023-03-01T15:26:57;2.90;;;2.60;;
64868;SDS011;51349;52.424;10.840;2023-03-01T15:32:22;3.58;;;2.65;;
64868;SDS011;51349;52.424;10.840;2023-03-01T15:37:46;2.70;;;2.50;;
64868;SDS011;51349;52.424;10.840;2023-03-01T15:42:48;4.75;;;2.60;;
64868;SDS011;51349;52.424;10.840;2023-03-01T15:47:51;2.40;;;2.20;;
64868;SDS011;51349;52.424;10.840;2023-03-01T15:53:04;2.38;;;2.17;;
64868;SDS011;51349;52.424;10.840;2023-03-01T15:58:18;2.80;;;2.60;;
64868;SDS011;51349;52.424;10.840;2023-03-01T16:03:21;2.33;;;2.13;;
64868;SDS011;51349;52.424;10.840;2023-03-01T16:08:22;2.50;;;2.30;;
64868;SDS011;51349;52.424;10.840;2023-03-01T16:13:23;2.72;;;2.53;;
64868;SDS011;51349;52.424;10.840;2023-03-01T16:18:25;2.78;;;2.58;;
64868;SDS011;51349;52.424;10.840;2023-03-01T16:23:25;2.67;;;2.47;;
64868;SDS011;51349;52.424;10.840;2023-03-01T16:28:26;2.80;;;2.60;;
64868;SDS011;51349;52.424;10.840;2023-03-01T16:33:27;3.00;;;2.80;;
64868;SDS011;51349;52.424;10.840;2023-03-01T16:38:28;3.20;;;2.90;;
64868;SDS011;51349;52.424;10.840;2023-03-01T16:43:31;3.10;;;2.80;;
64868;SDS011;51349;52.424;10.840;2023-03-01T16:48:31;3.00;;;2.80;;
64868;SDS011;51349;52.424;10.840;2023-03-01T16:53:32;3.17;;;2.87;;
64868;SDS011;51349;52.424;10.840;2023-03-01T16:58:36;4.20;;;3.30;;
64868;SDS011;51349;52.424;10.840;2023-03-01T17:03:38;3.60;;;2.67;;
64868;SDS011;51349;52.424;10.840;2023-03-01T17:08:39;2.47;;;2.27;;
64868;SDS011;51349;52.424;10.840;2023-03-01T17:13:41;3.03;;;2.73;;
64868;SDS011;51349;52.424;10.840;2023-03-01T17:18:42;5.40;;;3.60;;
64868;SDS011;51349;52.424;10.840;2023-03-01T17:23:43;3.27;;;2.97;;
64868;SDS011;51349;52.424;10.840;2023-03-01T17:28:45;3.90;;;3.07;;
64868;SDS011;51349;52.424;10.840;2023-03-01T17:33:50;3.27;;;2.60;;
64868;SDS011;51349;52.424;10.840;2023-03-01T17:38:51;4.77;;;3.07;;
64868;SDS011;51349;52.424;10.840;2023-03-01T17:43:54;6.10;;;4.00;;
64868;SDS011;51349;52.424;10.840;2023-03-01T17:48:55;6.63;;;5.20;;
64868;SDS011;51349;52.424;10.840;2023-03-01T17:53:56;6.20;;;5.47;;
64868;SDS011;51349;52.424;10.840;2023-03-01T17:58:56;16.13;;;11.53;;
64868;SDS011;51349;52.424;10.840;2023-03-01T18:03:57;5.23;;;4.77;;
64868;SDS011;51349;52.424;10.840;2023-03-01T18:08:58;6.50;;;5.43;;
64868;SDS011;51349;52.424;10.840;2023-03-01T18:13:59;6.40;;;5.40;;
64868;SDS011;51349;52.424;10.840;2023-03-01T18:19:00;5.70;;;4.87;;
64868;SDS011;51349;52.424;10.840;2023-03-01T18:24:01;6.80;;;6.07;;
64868;SDS011;51349;52.424;10.840;2023-03-01T18:29:02;9.07;;;7.10;;
64868;SDS011;51349;52.424;10.840;2023-03-01T18:34:03;6.73;;;6.13;;
64868;SDS011;51349;52.424;10.840;2023-03-01T18:39:05;6.87;;;6.17;;
64868;SDS011;51349;52.424;10.840;2023-03-01T18:44:06;8.90;;;6.80;;
64868;SDS011;51349;52.424;10.840;2023-03-01T18:49:07;6.40;;;5.80;;
64868;SDS011;51349;52.424;10.840;2023-03-01T18:54:09;17.50;;;11.60;;
64868;SDS011;51349;52.424;10.840;2023-03-01T18:59:11;8.57;;;7.27;;
64868;SDS011;51349;52.424;10.840;2023-03-01T19:04:12;8.63;;;6.93;;
64868;SDS011;51349;52.424;10.840;2023-03-01T19:09:12;10.57;;;8.27;;
64868;SDS011;51349;52.424;10.840;2023-03-01T19:14:14;11.23;;;7.67;;
64868;SDS011;51349;52.424;10.840;2023-03-01T19:19:15;11.30;;;8.13;;
64868;SDS011;51349;52.424;10.840;2023-03-01T19:24:15;8.93;;;7.33;;
64868;SDS011;51349;52.424;10.840;2023-03-01T19:29:16;9.83;;;7.20;;
64868;SDS011;51349;52.424;10.840;2023-03-01T19:34:17;8.30;;;7.43;;
64868;SDS011;51349;52.424;10.840;2023-03-01T19:39:17;8.90;;;7.97;;
64868;SDS011;51349;52.424;10.840;2023-03-01T19:44:18;13.37;;;8.77;;
64868;SDS011;51349;52.424;10.840;2023-03-01T19:49:24;9.97;;;8.43;;
64868;SDS011;51349;52.424;10.840;2023-03-01T19:54:25;10.80;;;8.10;;
64868;SDS011;51349;52.424;10.840;2023-03-01T19:59:26;9.77;;;8.13;;
64868;SDS011;51349;52.424;10.840;2023-03-01T20:04:27;10.37;;;7.27;;
64868;SDS011;51349;52.424;10.840;2023-03-01T20:09:27;11.23;;;8.07;;
64868;SDS011;51349;52.424;10.840;2023-03-01T20:14:28;11.03;;;7.93;;
64868;SDS011;51349;52.424;10.840;2023-03-01T20:19:29;7.77;;;6.97;;
64868;SDS011;51349;52.424;10.840;2023-03-01T20:24:29;9.80;;;7.57;;
64868;SDS011;51349;52.424;10.840;2023-03-01T20:29:30;11.70;;;8.07;;
64868;SDS011;51349;52.424;10.840;2023-03-01T20:34:31;10.97;;;7.90;;
64868;SDS011;51349;52.424;10.840;2023-03-01T20:39:32;11.70;;;8.33;;
64868;SDS011;51349;52.424;10.840;2023-03-01T20:44:33;13.93;;;9.57;;
64868;SDS011;51349;52.424;10.840;2023-03-01T20:49:34;13.03;;;10.40;;
64868;SDS011;51349;52.424;10.840;2023-03-01T20:54:34;13.83;;;10.27;;
64868;SDS011;51349;52.424;10.840;2023-03-01T20:59:38;11.00;;;8.70;;
64868;SDS011;51349;52.424;10.840;2023-03-01T21:04:39;16.30;;;9.97;;
64868;SDS011;51349;52.424;10.840;2023-03-01T21:09:40;13.30;;;6.70;;
64868;SDS011;51349;52.424;10.840;2023-03-01T21:14:41;7.03;;;6.00;;
64868;SDS011;51349;52.424;10.840;2023-03-01T21:19:42;7.20;;;5.90;;
64868;SDS011;51349;52.424;10.840;2023-03-01T21:24:43;9.67;;;7.53;;
64868;SDS011;51349;52.424;10.840;2023-03-01T21:29:45;8.23;;;6.70;;
64868;SDS011;51349;52.424;10.840;2023-03-01T21:34:46;8.40;;;6.30;;
64868;SDS011;51349;52.424;10.840;2023-03-01T21:39:46;6.80;;;5.97;;
64868;SDS011;51349;52.424;10.840;2023-03-01T21:44:47;7.40;;;6.60;;
64868;SDS011;51349;52.424;10.840;2023-03-01T21:49:48;6.33;;;5.07;;
64868;SDS011;51349;52.424;10.840;2023-03-01T21:54:52;6.60;;;5.13;;
64868;SDS011;51349;52.424;10.840;2023-03-01T21:59:54;6.70;;;5.80;;
64868;SDS011;51349;52.424;10.840;2023-03-01T22:04:55;6.03;;;5.00;;
64868;SDS011;51349;52.424;10.840;2023-03-01T22:09:56;6.30;;;4.97;;
64868;SDS011;51349;52.424;10.840;2023-03-01T22:14:57;6.20;;;5.57;;
64868;SDS011;51349;52.424;10.840;2023-03-01T22:19:57;5.77;;;4.97;;
64868;SDS011;51349;52.424;10.840;2023-03-01T22:24:58;5.43;;;4.87;;
64868;SDS011;51349;52.424;10.840;2023-03-01T22:29:58;7.20;;;5.13;;
64868;SDS011;51349;52.424;10.840;2023-03-01T22:34:59;6.10;;;5.07;;
64868;SDS011;51349;52.424;10.840;2023-03-01T22:40:00;7.87;;;5.50;;
64868;SDS011;51349;52.424;10.840;2023-03-01T22:45:04;6.47;;;5.67;;
64868;SDS011;51349;52.424;10.840;2023-03-01T22:50:06;10.60;;;7.20;;
64868;SDS011;51349;52.424;10.840;2023-03-01T22:55:08;9.87;;;6.80;;
64868;SDS011;51349;52.424;10.840;2023-03-01T23:00:09;11.57;;;7.10;;
64868;SDS011;51349;52.424;10.840;2023-03-01T23:05:12;10.53;;;6.90;;
64868;SDS011;51349;52.424;10.840;2023-03-01T23:10:13;10.57;;;7.20;;
64868;SDS011;51349;52.424;10.840;2023-03-01T23:15:14;8.83;;;6.83;;
64868;SDS011;51349;52.424;10.840;2023-03-01T23:20:15;10.00;;;6.30;;
64868;SDS011;51349;52.424;10.840;2023-03-01T23:25:16;10.33;;;6.80;;
64868;SDS011;51349;52.424;10.840;2023-03-01T23:30:16;8.77;;;6.30;;
64868;SDS011;51349;52.424;10.840;2023-03-01T23:35:17;10.13;;;6.27;;
64868;SDS011;51349;52.424;10.840;2023-03-01T23:40:18;7.83;;;6.17;;
64868;SDS011;51349;52.424;10.840;2023-03-01T23:45:19;12.20;;;6.97;;
64868;SDS011;51349;52.424;10.840;2023-03-01T23:50:20;6.77;;;5.67;;
64868;SDS011;51349;52.424;10.840;2023-03-01T23:55:20;7.67;;;6.40;;
